Time;durP1;ratioP1;P1;durP2;ratioP2;P2;SDS_P1;SDS_P2;PMS_P1;PMS_P2;Temp;Humidity;BMP_temperature;BMP_pressure;BME280_temperature;BME280_humidity;BME280_pressure;Samples;Min_cycle;Max_cycle;Signal;HPM_P1;HPM_P2
2021/09/14 00:00:44;;;;;;;1.02;0.93;;;18.50;99.90;;;;;;5050763;28;20244;-76
2021/09/14 00:03:11;;;;;;;0.80;0.80;;;18.50;99.90;;;;;;5048910;28;20240;-76
2021/09/14 00:05:37;;;;;;;0.80;0.77;;;18.50;99.90;;;;;;5048205;28;20224;-76
2021/09/14 00:08:05;;;;;;;0.60;0.60;;;18.50;99.90;;;;;;5048567;28;20678;-76
2021/09/14 00:10:32;;;;;;;0.73;0.73;;;18.50;99.90;;;;;;5049529;28;20193;-76
2021/09/14 00:12:59;;;;;;;0.77;0.77;;;18.50;99.90;;;;;;5034850;28;20221;-76
2021/09/14 00:15:27;;;;;;;0.65;0.65;;;18.50;99.90;;;;;;5049736;28;20197;-76
2021/09/14 00:17:54;;;;;;;0.90;0.90;;;18.50;99.90;;;;;;5047476;28;20208;-76
2021/09/14 00:20:21;;;;;;;1.10;1.00;;;18.50;99.90;;;;;;5050110;28;20201;-76
2021/09/14 00:22:50;;;;;;;0.90;0.90;;;18.50;99.90;;;;;;5047748;28;20237;-76
2021/09/14 00:25:17;;;;;;;0.50;0.50;;;18.50;99.90;;;;;;5047592;28;20214;-76
2021/09/14 00:27:44;;;;;;;0.73;0.73;;;18.50;99.90;;;;;;5046414;28;20209;-76
2021/09/14 00:30:12;;;;;;;0.80;0.80;;;18.40;99.90;;;;;;5048404;28;20208;-76
2021/09/14 00:32:41;;;;;;;1.27;0.85;;;18.50;99.90;;;;;;5048592;28;20202;-76
2021/09/14 00:35:09;;;;;;;0.80;0.80;;;18.40;99.90;;;;;;5047922;28;20327;-76
2021/09/14 00:37:36;;;;;;;1.17;0.93;;;18.40;99.90;;;;;;5047479;28;20293;-76
2021/09/14 00:40:05;;;;;;;0.63;0.63;;;18.40;99.90;;;;;;5049127;28;20198;-76
2021/09/14 00:42:32;;;;;;;0.93;0.75;;;18.40;99.90;;;;;;5063391;28;20226;-76
2021/09/14 00:44:59;;;;;;;0.70;0.70;;;18.40;99.90;;;;;;5047361;28;20206;-76
2021/09/14 00:47:26;;;;;;;0.60;0.60;;;18.30;99.90;;;;;;5046362;28;20609;-76
2021/09/14 00:49:54;;;;;;;0.63;0.63;;;18.40;99.90;;;;;;5048068;28;20209;-76
2021/09/14 00:52:21;;;;;;;0.70;0.70;;;18.30;99.90;;;;;;5048297;28;20208;-76
2021/09/14 00:54:49;;;;;;;0.70;0.70;;;18.40;99.90;;;;;;5047079;28;20292;-76
2021/09/14 00:57:15;;;;;;;0.40;0.40;;;18.30;99.90;;;;;;5046367;28;20644;-76
2021/09/14 00:59:42;;;;;;;0.60;0.60;;;18.40;99.90;;;;;;5048955;28;20534;-76
2021/09/14 01:02:10;;;;;;;0.50;0.50;;;18.30;99.90;;;;;;5047749;28;20229;-76
2021/09/14 01:04:37;;;;;;;0.57;0.57;;;18.30;99.90;;;;;;5045732;28;20581;-76
2021/09/14 01:07:06;;;;;;;1.33;0.90;;;18.30;99.90;;;;;;5047813;28;20267;-76
2021/09/14 01:09:36;;;;;;;1.02;0.93;;;18.40;99.90;;;;;;5046618;28;20676;-76
2021/09/14 01:12:04;;;;;;;0.68;0.68;;;18.30;99.90;;;;;;5079943;28;20320;-75
2021/09/14 01:14:31;;;;;;;0.70;0.70;;;18.30;99.90;;;;;;5047467;28;20268;-75
2021/09/14 01:16:58;;;;;;;0.57;0.57;;;18.30;99.90;;;;;;5048269;28;20617;-75
2021/09/14 01:19:25;;;;;;;0.70;0.70;;;18.30;99.90;;;;;;5047614;28;20213;-76
2021/09/14 01:21:52;;;;;;;0.70;0.70;;;18.30;99.90;;;;;;5047645;28;20208;-77
2021/09/14 01:24:20;;;;;;;0.75;0.57;;;18.30;99.90;;;;;;5046189;28;20197;-77
2021/09/14 01:26:57;;;;;;;0.68;0.68;;;18.30;99.90;;;;;;5045606;28;20492;-76
2021/09/14 01:32:16;;;;;;;0.57;0.57;;;18.30;99.90;;;;;;5046862;28;20220;-76
2021/09/14 01:34:43;;;;;;;0.80;0.70;;;18.30;99.90;;;;;;5046672;28;20442;-76
2021/09/14 01:37:11;;;;;;;0.90;0.90;;;18.30;99.90;;;;;;5046402;28;20223;-76
2021/09/14 01:39:40;;;;;;;0.80;0.80;;;18.30;99.90;;;;;;5046304;28;20206;-76
2021/09/14 01:42:07;;;;;;;0.65;0.65;;;18.30;99.90;;;;;;5045863;28;20689;-76
2021/09/14 01:44:35;;;;;;;0.70;0.70;;;18.30;99.90;;;;;;5047327;28;20258;-77
2021/09/14 01:47:02;;;;;;;0.65;0.65;;;18.30;99.90;;;;;;5045892;28;20700;-77
2021/09/14 01:49:29;;;;;;;0.57;0.57;;;18.30;99.90;;;;;;5045081;28;20212;-76
2021/09/14 01:51:58;;;;;;;0.63;0.63;;;18.30;99.90;;;;;;5046852;28;20686;-75
2021/09/14 01:54:25;;;;;;;0.60;0.60;;;18.30;99.90;;;;;;5045778;28;20300;-76
2021/09/14 01:56:53;;;;;;;1.10;0.80;;;18.30;99.90;;;;;;5045408;28;20213;-76
2021/09/14 01:59:20;;;;;;;0.63;0.63;;;18.20;99.90;;;;;;5047401;28;20208;-75
2021/09/14 02:02:00;;;;;;;0.50;0.50;;;18.20;99.90;;;;;;5046228;28;20569;-75
2021/09/14 02:04:36;;;;;;;0.90;0.90;;;18.20;99.90;;;;;;5046716;28;20204;-75
2021/09/14 02:23:56;;;;;;;0.63;0.63;;;18.20;99.90;;;;;;5037917;28;20225;-76
2021/09/14 02:43:21;;;;;;;0.90;0.90;;;18.20;99.90;;;;;;5045719;28;20229;-76
2021/09/14 02:59:40;;;;;;;0.82;0.70;;;18.20;99.90;;;;;;4992627;28;20312;-75
2021/09/14 03:02:11;;;;;;;0.88;0.88;;;18.10;99.90;;;;;;4992060;28;20218;-75
2021/09/14 03:04:38;;;;;;;0.80;0.80;;;18.10;99.90;;;;;;4989658;28;20206;-75
2021/09/14 03:07:05;;;;;;;1.05;1.00;;;18.10;99.90;;;;;;4991487;28;20943;-75
2021/09/14 03:09:36;;;;;;;0.85;0.80;;;18.10;99.90;;;;;;4991653;28;20242;-75
2021/09/14 03:12:05;;;;;;;0.90;0.90;;;18.10;99.90;;;;;;4981357;28;20236;-77
2021/09/14 03:14:34;;;;;;;0.85;0.85;;;18.10;99.90;;;;;;4989143;28;20215;-75
2021/09/14 03:17:02;;;;;;;0.80;0.80;;;18.10;99.90;;;;;;4991773;28;20213;-75
2021/09/14 03:19:31;;;;;;;1.00;0.75;;;18.10;99.90;;;;;;4992223;28;20214;-76
2021/09/14 03:22:00;;;;;;;1.20;0.80;;;18.10;99.90;;;;;;4992558;28;20229;-76
2021/09/14 03:24:27;;;;;;;2.30;0.93;;;18.10;99.90;;;;;;4991328;28;20673;-76
2021/09/14 03:26:57;;;;;;;1.13;1.00;;;18.10;99.90;;;;;;4990789;28;20633;-76
2021/09/14 03:29:24;;;;;;;0.70;0.70;;;18.10;99.90;;;;;;4992305;28;20217;-76
2021/09/14 03:31:51;;;;;;;1.90;0.93;;;18.10;99.90;;;;;;4992152;28;20294;-76
2021/09/14 03:34:19;;;;;;;0.88;0.85;;;18.00;99.90;;;;;;5029940;28;20324;-76
2021/09/14 03:36:48;;;;;;;1.27;0.70;;;18.00;99.90;;;;;;5048788;28;20223;-76
2021/09/14 03:39:15;;;;;;;1.10;1.00;;;18.00;99.90;;;;;;5047618;28;20245;-76
2021/09/14 03:41:42;;;;;;;1.20;1.10;;;18.00;99.90;;;;;;5047784;28;20206;-76
2021/09/14 03:44:10;;;;;;;1.27;1.00;;;18.00;99.90;;;;;;5049118;28;20571;-76
2021/09/14 03:46:37;;;;;;;1.20;0.95;;;18.00;99.90;;;;;;5048686;28;20697;-75
2021/09/14 03:49:04;;;;;;;0.85;0.85;;;18.00;99.90;;;;;;5048865;28;20200;-75
2021/09/14 03:51:36;;;;;;;0.80;0.80;;;18.00;99.90;;;;;;5049071;28;20539;-75
2021/09/14 03:54:04;;;;;;;0.90;0.90;;;18.00;99.90;;;;;;5048248;28;20208;-75
2021/09/14 03:56:32;;;;;;;1.45;1.00;;;18.00;99.90;;;;;;5046318;28;20665;-75
2021/09/14 03:59:00;;;;;;;0.80;0.80;;;18.00;99.90;;;;;;5048143;28;20213;-75
2021/09/14 04:01:28;;;;;;;1.08;1.08;;;18.00;99.90;;;;;;5047244;28;20209;-75
2021/09/14 04:03:59;;;;;;;0.90;0.90;;;18.00;99.90;;;;;;5048447;28;20222;-74
2021/09/14 04:06:51;;;;;;;0.80;0.80;;;18.00;99.90;;;;;;5047787;28;20208;-76
2021/09/14 04:09:20;;;;;;;0.70;0.70;;;18.10;99.90;;;;;;5046994;28;20209;-76
2021/09/14 04:11:53;;;;;;;0.90;0.90;;;18.10;99.90;;;;;;5046777;28;20199;-75
2021/09/14 04:14:25;;;;;;;0.60;0.60;;;18.10;99.90;;;;;;5048323;28;20201;-76
2021/09/14 04:16:53;;;;;;;0.80;0.80;;;18.00;99.90;;;;;;5047698;28;20203;-76
2021/09/14 04:19:22;;;;;;;0.70;0.70;;;18.00;99.90;;;;;;5048358;28;20220;-76
2021/09/14 04:21:50;;;;;;;0.70;0.70;;;18.00;99.90;;;;;;5048555;28;20220;-76
2021/09/14 04:24:24;;;;;;;0.80;0.80;;;18.10;99.90;;;;;;5047747;28;20225;-76
2021/09/14 04:26:51;;;;;;;0.70;0.68;;;18.10;99.90;;;;;;5046694;28;20247;-76
2021/09/14 04:29:18;;;;;;;0.80;0.80;;;18.10;99.90;;;;;;5047814;28;20212;-76
2021/09/14 04:31:45;;;;;;;0.70;0.70;;;18.10;99.90;;;;;;5049298;28;20217;-76
2021/09/14 04:34:12;;;;;;;0.60;0.60;;;18.10;99.90;;;;;;5048363;28;20384;-76
2021/09/14 04:36:39;;;;;;;1.15;0.93;;;18.10;99.90;;;;;;5047736;28;20278;-76
2021/09/14 04:39:11;;;;;;;0.60;0.60;;;18.10;99.90;;;;;;5046700;28;20212;-76
2021/09/14 04:41:40;;;;;;;0.60;0.60;;;18.10;99.90;;;;;;5047169;28;20222;-76
2021/09/14 04:44:08;;;;;;;0.60;0.60;;;18.10;99.90;;;;;;5047571;28;20225;-75
2021/09/14 04:46:35;;;;;;;0.70;0.70;;;18.10;99.90;;;;;;5047145;28;20215;-76
2021/09/14 04:49:03;;;;;;;0.80;0.80;;;18.10;99.90;;;;;;5049143;28;20571;-76
2021/09/14 04:51:30;;;;;;;0.70;0.70;;;18.20;99.90;;;;;;5048969;28;20533;-76
2021/09/14 04:53:57;;;;;;;0.60;0.60;;;18.20;99.90;;;;;;5047910;28;20207;-76
2021/09/14 04:56:24;;;;;;;0.87;0.70;;;18.20;99.90;;;;;;5046721;28;20193;-76
2021/09/14 04:58:52;;;;;;;0.60;0.60;;;18.30;99.90;;;;;;5047060;28;20209;-76
2021/09/14 05:01:20;;;;;;;0.57;0.57;;;18.30;99.90;;;;;;5047208;28;20300;-76
2021/09/14 05:03:47;;;;;;;0.87;0.87;;;18.20;99.90;;;;;;5047460;28;20249;-76
2021/09/14 05:06:15;;;;;;;0.50;0.50;;;18.30;99.90;;;;;;5047019;28;20205;-76
2021/09/14 05:08:42;;;;;;;0.50;0.50;;;18.40;99.90;;;;;;5047197;28;20205;-76
2021/09/14 05:11:13;;;;;;;1.00;1.00;;;18.40;99.90;;;;;;5043245;28;20205;-76
2021/09/14 05:13:40;;;;;;;0.80;0.80;;;18.40;99.90;;;;;;5037440;28;20234;-75
2021/09/14 05:16:08;;;;;;;0.77;0.77;;;18.40;99.90;;;;;;5047954;28;20217;-76
2021/09/14 05:19:00;;;;;;;0.77;0.77;;;18.50;99.90;;;;;;4986684;28;20204;-76
2021/09/14 05:21:27;;;;;;;0.80;0.80;;;18.50;99.90;;;;;;4986958;28;20620;-76
2021/09/14 05:23:54;;;;;;;0.70;0.70;;;18.50;99.90;;;;;;4986664;28;20290;-76
2021/09/14 05:26:22;;;;;;;0.65;0.65;;;18.60;99.90;;;;;;4968616;28;20203;-76
2021/09/14 05:28:49;;;;;;;0.73;0.60;;;18.70;99.90;;;;;;4970416;28;20270;-76
2021/09/14 05:31:18;;;;;;;0.90;0.60;;;18.80;99.90;;;;;;4982564;28;20243;-76
2021/09/14 05:33:46;;;;;;;0.90;0.90;;;18.90;99.90;;;;;;4982311;28;20676;-76
2021/09/14 05:36:13;;;;;;;1.05;0.98;;;19.00;99.90;;;;;;4970640;28;20210;-76
2021/09/14 05:38:42;;;;;;;1.20;0.98;;;19.10;99.90;;;;;;4986426;28;20200;-76
2021/09/14 05:41:09;;;;;;;0.90;0.90;;;19.10;99.90;;;;;;4968034;28;20829;-76
2021/09/14 05:43:36;;;;;;;2.28;0.90;;;19.20;99.90;;;;;;4962433;28;20236;-76
2021/09/14 05:46:03;;;;;;;1.13;1.02;;;19.30;99.90;;;;;;4965676;28;20296;-76
2021/09/14 05:48:34;;;;;;;1.52;1.42;;;19.40;99.90;;;;;;4969674;28;20702;-76
2021/09/14 05:51:01;;;;;;;0.77;0.77;;;19.50;99.90;;;;;;4970246;28;20237;-76
2021/09/14 05:53:30;;;;;;;0.98;0.98;;;19.60;99.90;;;;;;4970212;28;20202;-76
2021/09/14 05:55:58;;;;;;;1.20;1.20;;;19.60;99.90;;;;;;5004804;28;20198;-76
2021/09/14 05:58:27;;;;;;;1.42;1.33;;;19.70;99.90;;;;;;5045598;28;20229;-76
2021/09/14 06:00:54;;;;;;;2.85;1.35;;;19.80;99.90;;;;;;5046643;28;20214;-76
2021/09/14 06:03:27;;;;;;;1.15;1.00;;;19.90;99.90;;;;;;5046068;28;20668;-76
2021/09/14 06:05:56;;;;;;;1.20;1.10;;;20.00;99.90;;;;;;5041158;28;20327;-76
2021/09/14 06:08:23;;;;;;;1.58;1.15;;;20.20;99.90;;;;;;5044163;28;20200;-77
2021/09/14 06:10:52;;;;;;;0.80;0.80;;;20.40;99.90;;;;;;5041958;28;20554;-76
2021/09/14 06:13:20;;;;;;;0.90;0.90;;;20.60;99.90;;;;;;5032554;28;20233;-76
2021/09/14 06:15:47;;;;;;;1.30;1.20;;;20.80;99.90;;;;;;5043682;28;20198;-76
2021/09/14 06:18:20;;;;;;;1.00;1.00;;;20.90;99.90;;;;;;5031861;28;20268;-77
2021/09/14 06:20:51;;;;;;;0.88;0.88;;;21.10;99.90;;;;;;5045756;28;20212;-74
2021/09/14 06:23:20;;;;;;;1.50;1.40;;;21.30;99.90;;;;;;5078827;28;20225;-76
2021/09/14 06:25:49;;;;;;;1.38;1.35;;;21.50;99.90;;;;;;5047858;28;20227;-76
2021/09/14 06:28:17;;;;;;;1.02;1.00;;;21.60;99.90;;;;;;5049495;28;20720;-77
2021/09/14 06:30:44;;;;;;;1.30;1.30;;;21.70;99.90;;;;;;5048027;28;20215;-77
2021/09/14 06:33:15;;;;;;;0.93;0.93;;;21.80;99.90;;;;;;5050369;28;20229;-77
2021/09/14 06:35:48;;;;;;;1.02;1.02;;;21.80;99.90;;;;;;5048695;28;20198;-75
2021/09/14 06:38:24;;;;;;;1.30;1.20;;;21.90;99.90;;;;;;5049187;28;20300;-75
2021/09/14 06:40:52;;;;;;;1.10;1.00;;;21.90;99.90;;;;;;5079940;28;20260;-76
2021/09/14 06:43:23;;;;;;;1.02;0.80;;;22.00;99.90;;;;;;5048220;28;20202;-75
2021/09/14 06:46:09;;;;;;;0.90;0.90;;;22.00;99.90;;;;;;5050131;28;20286;-75
2021/09/14 06:48:43;;;;;;;2.45;0.80;;;22.10;99.90;;;;;;5047204;28;20445;-76
2021/09/14 06:51:10;;;;;;;0.93;0.93;;;22.20;99.90;;;;;;5043620;28;20208;-75
2021/09/14 06:53:39;;;;;;;1.02;1.02;;;22.20;99.90;;;;;;5044053;28;20274;-74
2021/09/14 06:56:06;;;;;;;1.23;1.23;;;22.30;99.90;;;;;;5041784;28;20708;-72
2021/09/14 06:58:38;;;;;;;1.20;1.15;;;22.50;99.90;;;;;;5044646;28;20417;-76
2021/09/14 07:01:06;;;;;;;1.67;1.42;;;22.60;99.90;;;;;;5049097;28;20206;-76
2021/09/14 07:03:33;;;;;;;2.55;2.30;;;22.80;99.90;;;;;;5046795;28;20310;-76
2021/09/14 07:06:00;;;;;;;1.90;1.70;;;23.10;99.50;;;;;;5049895;28;20654;-74
2021/09/14 07:08:27;;;;;;;2.22;2.05;;;23.30;99.10;;;;;;5048697;28;20193;-76
2021/09/14 07:10:55;;;;;;;1.70;1.60;;;23.60;98.60;;;;;;5048075;28;20684;-77
2021/09/14 07:13:22;;;;;;;3.13;2.92;;;23.70;98.20;;;;;;5043618;28;20232;-76
2021/09/14 07:15:49;;;;;;;3.42;2.47;;;23.90;97.80;;;;;;5049816;28;20194;-76
2021/09/14 07:18:16;;;;;;;1.98;1.80;;;24.10;97.40;;;;;;5048520;28;20206;-76
2021/09/14 07:20:43;;;;;;;1.80;1.70;;;24.30;97.10;;;;;;5048998;28;20213;-76
2021/09/14 07:23:10;;;;;;;2.55;2.30;;;24.60;96.70;;;;;;5050118;28;20654;-77
2021/09/14 07:25:40;;;;;;;2.95;2.67;;;25.10;96.10;;;;;;5046871;28;20511;-79
2021/09/14 07:28:10;;;;;;;3.28;2.90;;;26.50;94.70;;;;;;5048091;28;20225;-76
2021/09/14 07:30:37;;;;;;;2.55;2.45;;;27.40;92.20;;;;;;5047865;28;20193;-77
2021/09/14 07:33:04;;;;;;;2.20;2.00;;;27.80;90.70;;;;;;5042178;28;20224;-78
2021/09/14 07:35:33;;;;;;;2.10;1.88;;;28.20;88.50;;;;;;5047776;28;20435;-76
2021/09/14 07:38:00;;;;;;;1.77;1.55;;;28.50;85.20;;;;;;5046744;28;20210;-75
2021/09/14 07:40:28;;;;;;;2.65;1.50;;;28.80;82.10;;;;;;5046227;28;20209;-76
2021/09/14 07:42:56;;;;;;;3.33;1.42;;;29.00;79.20;;;;;;5044044;28;20205;-77
2021/09/14 07:45:25;;;;;;;3.53;1.48;;;28.90;77.30;;;;;;5048933;28;20228;-77
2021/09/14 07:47:53;;;;;;;1.65;1.55;;;28.80;77.00;;;;;;5047282;28;20202;-79
2021/09/14 07:50:21;;;;;;;1.38;1.27;;;28.90;75.70;;;;;;5047804;28;20202;-76
2021/09/14 07:52:49;;;;;;;2.08;1.40;;;29.30;74.00;;;;;;5047265;28;20206;-76
2021/09/14 07:55:16;;;;;;;1.10;1.10;;;29.90;72.20;;;;;;5047029;28;20658;-76
2021/09/14 07:57:43;;;;;;;1.30;1.20;;;30.10;70.20;;;;;;5046717;28;20343;-77
2021/09/14 08:00:12;;;;;;;1.65;1.20;;;30.20;69.00;;;;;;5047353;28;20212;-75
2021/09/14 08:02:40;;;;;;;3.33;1.45;;;30.20;68.00;;;;;;5047271;28;20666;-75
2021/09/14 08:05:08;;;;;;;1.27;1.13;;;30.00;67.00;;;;;;5048445;28;20384;-74
2021/09/14 08:07:35;;;;;;;1.58;1.33;;;29.60;67.00;;;;;;5046953;28;20224;-77
2021/09/14 08:10:02;;;;;;;1.10;1.00;;;29.30;66.40;;;;;;5040228;28;20274;-75
2021/09/14 08:12:29;;;;;;;1.10;1.10;;;29.00;67.10;;;;;;5032448;28;20234;-66
2021/09/14 08:14:56;;;;;;;1.00;1.00;;;28.90;67.10;;;;;;5047989;28;20190;-69
2021/09/14 08:17:24;;;;;;;0.80;0.80;;;29.00;67.40;;;;;;5046738;28;20286;-67
2021/09/14 08:19:52;;;;;;;0.93;0.93;;;29.10;66.90;;;;;;5046115;28;20255;-67
2021/09/14 08:22:19;;;;;;;0.90;0.90;;;29.20;66.60;;;;;;5047756;28;20202;-66
2021/09/14 08:24:46;;;;;;;0.70;0.70;;;29.60;65.90;;;;;;5048173;28;20221;-67
2021/09/14 08:27:13;;;;;;;1.00;1.00;;;29.90;65.20;;;;;;5046097;28;20201;-67
2021/09/14 08:29:40;;;;;;;0.90;0.90;;;29.90;64.20;;;;;;5046874;28;20424;-67
2021/09/14 08:32:07;;;;;;;1.13;1.13;;;30.40;63.90;;;;;;5038897;28;20264;-68
2021/09/14 08:34:34;;;;;;;0.88;0.88;;;32.20;61.20;;;;;;5042423;28;20522;-67
2021/09/14 08:37:03;;;;;;;1.17;1.10;;;34.40;56.70;;;;;;5046678;28;20197;-68
2021/09/14 08:39:30;;;;;;;1.20;1.10;;;36.90;52.50;;;;;;5044586;28;20300;-68
2021/09/14 08:41:57;;;;;;;1.50;1.40;;;38.30;48.70;;;;;;5046546;28;20198;-68
2021/09/14 08:44:24;;;;;;;1.38;1.38;;;38.00;46.80;;;;;;5047130;28;20236;-67
2021/09/14 08:46:51;;;;;;;1.23;1.23;;;36.90;47.20;;;;;;5047073;28;20198;-68
2021/09/14 08:49:18;;;;;;;1.70;1.40;;;35.80;47.90;;;;;;5045402;28;20204;-68
2021/09/14 08:51:45;;;;;;;1.80;1.80;;;35.00;48.60;;;;;;5043781;28;20478;-68
2021/09/14 08:54:13;;;;;;;1.80;1.80;;;34.80;47.80;;;;;;5045415;28;20440;-68
2021/09/14 08:56:40;;;;;;;1.60;1.50;;;34.20;47.70;;;;;;5045886;28;20197;-67
2021/09/14 08:59:07;;;;;;;1.60;1.50;;;33.80;48.10;;;;;;5044130;28;20881;-67
2021/09/14 09:01:34;;;;;;;1.33;1.33;;;33.10;48.20;;;;;;5045350;28;20272;-68
2021/09/14 09:04:03;;;;;;;1.00;1.00;;;32.40;49.00;;;;;;5045017;28;20662;-68
2021/09/14 09:06:32;;;;;;;1.20;1.20;;;31.60;49.50;;;;;;5048058;28;20194;-68
2021/09/14 09:09:14;;;;;;;1.00;1.00;;;30.90;50.00;;;;;;5045142;28;20202;-68
2021/09/14 09:11:59;;;;;;;0.90;0.85;;;30.20;50.70;;;;;;5043259;28;20197;-67
2021/09/14 09:14:37;;;;;;;0.95;0.95;;;29.70;51.50;;;;;;5047758;28;20221;-67
2021/09/14 09:17:06;;;;;;;0.50;0.50;;;29.20;52.00;;;;;;5045090;28;20204;-67
2021/09/14 09:19:33;;;;;;;0.65;0.65;;;28.80;52.30;;;;;;5044154;28;20206;-67
2021/09/14 09:22:00;;;;;;;0.68;0.68;;;29.10;52.70;;;;;;5047164;28;20209;-71
2021/09/14 09:24:28;;;;;;;1.00;0.80;;;31.30;51.30;;;;;;5044517;28;20460;-72
2021/09/14 09:26:55;;;;;;;1.25;1.25;;;33.20;48.40;;;;;;5046849;28;20198;-71
2021/09/14 09:29:26;;;;;;;1.40;1.40;;;33.30;47.10;;;;;;5045966;28;20218;-71
2021/09/14 09:31:53;;;;;;;1.40;1.40;;;32.60;47.40;;;;;;5045328;28;20443;-71
2021/09/14 09:34:27;;;;;;;2.15;1.30;;;31.70;48.10;;;;;;5045349;28;20225;-71
2021/09/14 09:37:04;;;;;;;1.13;1.13;;;31.00;48.70;;;;;;5057734;28;20715;-71
2021/09/14 09:39:45;;;;;;;0.80;0.80;;;30.30;49.40;;;;;;5054152;28;20292;-71
2021/09/14 09:42:13;;;;;;;0.90;0.90;;;29.60;50.30;;;;;;5058030;28;21035;-70
2021/09/14 09:44:40;;;;;;;0.90;0.90;;;29.10;51.40;;;;;;5055204;28;20216;-71
2021/09/14 09:47:07;;;;;;;0.73;0.73;;;28.60;52.20;;;;;;5058488;28;20207;-72
2021/09/14 09:49:34;;;;;;;0.80;0.80;;;28.10;52.80;;;;;;5055775;28;20430;-72
2021/09/14 09:52:01;;;;;;;0.80;0.80;;;27.70;53.80;;;;;;5060113;28;20288;-72
2021/09/14 09:54:28;;;;;;;0.93;0.93;;;27.30;54.50;;;;;;5053503;28;20492;-70
2021/09/14 09:56:58;;;;;;;1.10;1.10;;;27.00;55.20;;;;;;5059661;28;20669;-70
2021/09/14 09:59:27;;;;;;;1.00;1.00;;;26.80;55.70;;;;;;5055933;28;20720;-70
2021/09/14 10:02:08;;;;;;;0.90;0.90;;;26.50;56.10;;;;;;5062495;28;20456;-73
2021/09/14 10:04:43;;;;;;;0.80;0.80;;;26.40;56.60;;;;;;5058967;28;20438;-73
2021/09/14 10:07:12;;;;;;;0.77;0.77;;;26.30;57.20;;;;;;5060133;28;20247;-72
2021/09/14 10:09:50;;;;;;;0.68;0.68;;;26.10;57.50;;;;;;5060794;28;20197;-72
2021/09/14 10:12:26;;;;;;;0.70;0.70;;;26.00;57.70;;;;;;5061492;28;20377;-71
2021/09/14 10:15:01;;;;;;;0.63;0.63;;;25.90;57.90;;;;;;5064849;28;20196;-71
2021/09/14 10:17:28;;;;;;;0.60;0.60;;;25.80;58.00;;;;;;5065571;28;20197;-71
2021/09/14 10:19:55;;;;;;;0.60;0.60;;;25.70;58.20;;;;;;5052847;28;20216;-71
2021/09/14 10:22:25;;;;;;;0.70;0.70;;;25.60;58.40;;;;;;5050005;28;21060;-72
2021/09/14 10:24:57;;;;;;;0.70;0.70;;;25.60;58.80;;;;;;5082710;28;20283;-72
2021/09/14 10:27:35;;;;;;;0.77;0.60;;;25.50;58.90;;;;;;5047709;28;20201;-72
2021/09/14 10:30:04;;;;;;;1.10;1.10;;;25.50;58.90;;;;;;5050073;28;20206;-72
2021/09/14 10:32:39;;;;;;;2.15;2.05;;;25.40;59.00;;;;;;5048847;28;20190;-72
2021/09/14 10:35:08;;;;;;;1.92;1.80;;;25.30;59.20;;;;;;5048516;28;20542;-73
2021/09/14 10:37:37;;;;;;;2.03;1.83;;;25.20;59.60;;;;;;5043906;28;20493;-72
2021/09/14 10:40:14;;;;;;;2.42;1.90;;;25.10;60.00;;;;;;5044506;28;20566;-72
2021/09/14 10:42:44;;;;;;;1.58;1.48;;;25.00;60.50;;;;;;5047820;28;20200;-72
2021/09/14 10:45:14;;;;;;;1.70;1.60;;;24.80;60.80;;;;;;5047783;28;20333;-72
2021/09/14 10:47:45;;;;;;;2.67;1.45;;;24.70;61.40;;;;;;5046879;28;20582;-72
2021/09/14 10:50:26;;;;;;;1.75;1.63;;;24.60;62.10;;;;;;5048152;28;20271;-72
2021/09/14 10:52:58;;;;;;;1.10;1.10;;;24.50;62.70;;;;;;5049347;28;20206;-71
2021/09/14 10:55:25;;;;;;;1.23;1.10;;;24.40;63.30;;;;;;5043513;28;20224;-72
2021/09/14 10:58:00;;;;;;;1.30;1.20;;;24.30;63.80;;;;;;5049072;28;20591;-72
2021/09/14 11:00:28;;;;;;;1.23;1.10;;;24.20;64.10;;;;;;5049414;28;20193;-72
2021/09/14 11:02:56;;;;;;;1.00;1.00;;;24.10;64.50;;;;;;5049531;28;20186;-72
2021/09/14 11:05:28;;;;;;;1.00;1.00;;;24.00;64.80;;;;;;5049984;28;20217;-72
2021/09/14 11:07:59;;;;;;;1.15;0.90;;;24.00;66.20;;;;;;5048290;28;20745;-72
2021/09/14 11:10:32;;;;;;;0.90;0.90;;;23.90;65.90;;;;;;5048413;28;20302;-71
2021/09/14 11:13:01;;;;;;;0.80;0.80;;;23.80;66.30;;;;;;5047298;28;20233;-72
2021/09/14 11:15:28;;;;;;;2.97;0.90;;;23.80;66.80;;;;;;5050542;28;20244;-72
2021/09/14 11:17:55;;;;;;;0.93;0.90;;;23.70;67.20;;;;;;5047497;28;20431;-72
2021/09/14 11:20:25;;;;;;;0.80;0.80;;;23.30;67.90;;;;;;5047600;28;21177;-72
2021/09/14 11:22:53;;;;;;;1.10;1.10;;;23.70;68.40;;;;;;5049585;28;20200;-72
2021/09/14 11:25:22;;;;;;;1.15;1.00;;;23.60;68.70;;;;;;5048503;28;20210;-72
2021/09/14 11:27:56;;;;;;;1.17;0.88;;;23.60;69.00;;;;;;5046827;28;20737;-72
2021/09/14 11:30:26;;;;;;;3.85;3.55;;;23.60;69.20;;;;;;5047986;28;20519;-72
2021/09/14 11:32:54;;;;;;;7.47;4.60;;;23.60;69.90;;;;;;5048424;28;20460;-72
2021/09/14 11:35:22;;;;;;;4.85;3.58;;;23.60;70.10;;;;;;5049732;28;20190;-71
2021/09/14 11:37:58;;;;;;;2.80;2.58;;;23.60;70.20;;;;;;5047511;28;20569;-72
2021/09/14 11:40:25;;;;;;;2.28;2.08;;;23.60;70.40;;;;;;5048403;28;20193;-72
2021/09/14 11:42:54;;;;;;;2.83;2.58;;;23.60;70.70;;;;;;5047541;28;20194;-71
2021/09/14 11:45:25;;;;;;;2.80;2.60;;;23.50;71.00;;;;;;5047873;28;20244;-72
2021/09/14 11:47:52;;;;;;;4.20;3.78;;;23.50;71.30;;;;;;5049686;28;20213;-72
2021/09/14 11:50:27;;;;;;;3.95;3.42;;;23.50;71.60;;;;;;5048520;28;20217;-72
2021/09/14 11:53:05;;;;;;;3.40;3.10;;;23.40;71.80;;;;;;5041644;28;20197;-72
2021/09/14 11:55:33;;;;;;;2.40;2.30;;;23.40;72.00;;;;;;5044484;28;20190;-71
2021/09/14 11:58:01;;;;;;;2.95;2.75;;;23.40;72.40;;;;;;5045603;28;20205;-72
2021/09/14 12:00:38;;;;;;;2.45;2.25;;;23.40;72.80;;;;;;5047525;28;20198;-72
2021/09/14 12:03:05;;;;;;;2.13;1.90;;;23.40;72.90;;;;;;5046276;28;20208;-72
2021/09/14 12:05:33;;;;;;;2.33;2.15;;;23.50;73.00;;;;;;5045329;28;20212;-72
2021/09/14 12:08:08;;;;;;;2.88;2.67;;;23.60;73.20;;;;;;5047654;28;20225;-72
2021/09/14 12:10:44;;;;;;;2.22;2.13;;;23.70;73.30;;;;;;5045131;28;20205;-72
2021/09/14 12:13:16;;;;;;;1.95;1.85;;;23.80;73.40;;;;;;5047678;28;20304;-72
2021/09/14 12:15:46;;;;;;;1.83;1.73;;;23.90;74.20;;;;;;5048929;28;20298;-72
2021/09/14 12:18:15;;;;;;;1.63;1.52;;;24.10;73.20;;;;;;5044868;28;20599;-72
2021/09/14 12:20:42;;;;;;;2.00;1.90;;;24.40;72.90;;;;;;5048890;28;20196;-72
2021/09/14 12:23:09;;;;;;;1.92;1.75;;;24.60;72.60;;;;;;5046090;28;20282;-71
2021/09/14 12:25:36;;;;;;;1.60;1.50;;;24.70;72.20;;;;;;5047039;28;20291;-72
2021/09/14 12:28:04;;;;;;;1.50;1.40;;;24.80;72.00;;;;;;5046969;28;20654;-72
2021/09/14 12:30:31;;;;;;;2.53;1.23;;;24.90;71.90;;;;;;5048128;28;20248;-72
2021/09/14 12:33:00;;;;;;;1.75;1.58;;;24.90;71.80;;;;;;5047487;28;20695;-72
2021/09/14 12:35:28;;;;;;;1.35;1.30;;;25.00;71.80;;;;;;5043476;28;20224;-72
2021/09/14 12:37:55;;;;;;;1.58;1.48;;;25.00;71.60;;;;;;5048058;28;20228;-72
2021/09/14 12:40:23;;;;;;;1.92;1.83;;;25.00;71.40;;;;;;5043446;28;20447;-73
2021/09/14 12:42:50;;;;;;;2.45;2.25;;;25.00;71.60;;;;;;5045733;28;20205;-74
2021/09/14 12:45:17;;;;;;;3.00;2.70;;;25.00;71.60;;;;;;5048485;28;20279;-73
2021/09/14 12:47:44;;;;;;;2.65;2.35;;;25.10;71.40;;;;;;5045569;28;20197;-74
2021/09/14 12:50:13;;;;;;;2.60;2.40;;;25.20;71.10;;;;;;5046484;28;20213;-74
2021/09/14 12:52:41;;;;;;;3.38;1.88;;;25.20;71.10;;;;;;5045292;28;20193;-74
2021/09/14 12:55:09;;;;;;;2.22;2.03;;;25.10;71.00;;;;;;5046099;28;20283;-74
2021/09/14 12:57:36;;;;;;;1.90;1.80;;;25.20;71.20;;;;;;5045806;28;20347;-73
2021/09/14 13:00:05;;;;;;;1.60;1.33;;;25.30;71.20;;;;;;5046672;28;20256;-73
2021/09/14 13:02:32;;;;;;;1.60;1.50;;;25.40;71.00;;;;;;5043726;28;20205;-72
2021/09/14 13:04:59;;;;;;;1.48;1.27;;;25.50;70.80;;;;;;5047683;28;20629;-73
2021/09/14 13:07:27;;;;;;;1.27;1.20;;;25.60;70.50;;;;;;5047693;28;20283;-73
2021/09/14 13:09:55;;;;;;;2.35;1.45;;;25.70;70.30;;;;;;5046692;28;20190;-74
2021/09/14 13:12:29;;;;;;;1.50;1.40;;;25.70;69.90;;;;;;5043056;28;20229;-73
2021/09/14 13:17:40;;;;;;;3.72;2.03;;;25.80;69.20;;;;;;5060099;28;20316;-73
2021/09/14 13:20:09;;;;;;;1.70;1.60;;;25.80;68.90;;;;;;5045209;28;20264;-72
2021/09/14 13:22:37;;;;;;;1.92;1.63;;;25.70;68.70;;;;;;5043745;28;20724;-73
2021/09/14 13:25:05;;;;;;;1.73;1.63;;;25.70;68.60;;;;;;5042388;28;20263;-73
2021/09/14 13:27:33;;;;;;;1.50;1.40;;;25.60;68.70;;;;;;5044785;28;20648;-73
2021/09/14 13:30:00;;;;;;;2.50;1.17;;;25.50;68.40;;;;;;5044376;28;20638;-72
2021/09/14 13:32:27;;;;;;;1.25;1.15;;;25.40;68.60;;;;;;5040399;28;20206;-74
2021/09/14 13:34:54;;;;;;;1.10;1.10;;;25.30;68.50;;;;;;5043273;28;20206;-73
2021/09/14 13:37:21;;;;;;;1.25;1.15;;;25.20;68.70;;;;;;5043161;28;20197;-68
2021/09/14 13:39:51;;;;;;;1.80;1.70;;;25.10;68.90;;;;;;5042185;28;20479;-68
2021/09/14 13:42:22;;;;;;;4.95;4.43;;;25.00;69.10;;;;;;5040988;28;20430;-68
2021/09/14 13:47:35;;;;;;;6.10;5.40;;;25.00;69.80;;;;;;5041609;28;20307;-68
2021/09/14 13:50:03;;;;;;;5.85;4.80;;;24.90;69.70;;;;;;5043289;28;20256;-70
2021/09/14 13:52:30;;;;;;;4.35;3.85;;;24.90;70.10;;;;;;5042234;28;20202;-69